• Join FlightAware (Why Join?)
  • Login
  • US Flag GB Flag 
21:04 EST


 

Airport Tracker/Info


-or-


 

Live Flight TrackerFlight Track Log ✈ UPS1122 ✈ 24-Apr-2013 ✈ KPHL - KBDL

Flight Track Log - Related Links

Times and Time Zones

All times are in EDT time to prevent confusion due to time zone crossing. See the UPS1122 flight status page for this flight to view local times or setup timezone preferences in your user account.

Time Position Orientation Groundspeed Altitude Reporting Facility
EDT Latitude Longitude Course Direction KTS MPH feet Rate Location/Type
03:41 39.8613 -75.2721 249° West 157 181 800  Level FlightAware ADS-B
03:41 39.8601 -75.2759 248° West 159 183 1,000 3,000 Climbing FlightAware ADS-B
03:41 39.8579 -75.2812 242° Southwest 165 190 1,300 2,520 Climbing FlightAware ADS-B
03:41 39.8551 -75.2882 242° Southwest 173 199 1,600 2,100 Climbing FlightAware ADS-B
03:41 39.8515 -75.2973 243° Southwest 180 207 1,900 1,800 Climbing FlightAware ADS-B
03:41 39.8503 -75.3007 245° Southwest 183 211 2,000 1,680 Climbing FlightAware ADS-B
03:41 39.8489 -75.3034 236° Southwest 186 214 2,100 1,980 Climbing FlightAware ADS-B
03:42 39.8470 -75.3067 233° Southwest 189 217 2,200 3,000 Climbing FlightAware ADS-B
03:42 39.8450 -75.3093 225° Southwest 192 221 2,400 2,520 Climbing FlightAware ADS-B
03:42 39.8426 -75.3116 216° Southwest 193 222 2,500 1,680 Climbing FlightAware ADS-B
03:42 39.8403 -75.3132 208° Southwest 197 227 2,600 1,980 Climbing FlightAware ADS-B
03:42 39.8377 -75.3144 200° South 200 230 2,700 1,980 Climbing FlightAware ADS-B
03:42 39.8348 -75.3152 192° South 203 234 2,800 3,000 Climbing FlightAware ADS-B
03:42 39.8319 -75.3156 186° South 206 237 3,000 3,000 Climbing FlightAware ADS-B
03:42 39.8286 -75.3152 175° South 209 241 3,100 2,520 Climbing FlightAware ADS-B
03:42 39.8253 -75.3143 168° South 211 243 3,300 2,520 Climbing FlightAware ADS-B
03:42 39.8225 -75.3129 159° South 213 245 3,400 1,980 Climbing FlightAware ADS-B
03:42 39.8197 -75.3111 154° Southeast 218 251 3,500 1,980 Climbing FlightAware ADS-B
03:42 39.8172 -75.3087 144° Southeast 223 257 3,600 1,980 Climbing FlightAware ADS-B
03:42 39.8148 -75.3057 136° Southeast 229 264 3,700 1,980 Climbing FlightAware ADS-B
03:42 39.8124 -75.3023 133° Southeast 234 269 3,800 1,680 Climbing FlightAware ADS-B
03:42 39.8102 -75.2980 124° Southeast 238 274 3,900 1,500 Climbing FlightAware ADS-B
03:42 39.8085 -75.2933 115° Southeast 243 280 4,000 1,680 Climbing FlightAware ADS-B
03:42 39.8071 -75.2886 111° Southeast 245 282 4,100 3,000 Climbing FlightAware ADS-B
03:42 39.8062 -75.2837 103° East 249 287 4,300 2,220 Climbing FlightAware ADS-B
03:43 39.8055 -75.2776 98° East 252 290 4,400 1,500 Climbing FlightAware ADS-B
03:43 39.8052 -75.2666 92° East 262 302 4,600 2,160 Climbing FlightAware ADS-B
03:43 39.8047 -75.2413 91° East 275 316 5,200 2,700 Climbing FlightAware ADS-B
03:43 39.8042 -75.2149 91° East 281 323 6,000 2,880 Climbing FlightAware ADS-B
03:43 39.8037 -75.1890 91° East 285 328 6,700 3,060 Climbing FlightAware ADS-B
03:44 39.8031 -75.1620 92° East 286 329 7,600 3,180 Climbing FlightAware ADS-B
03:44 39.8030 -75.1344 90° East 290 334 8,400 2,460 Climbing FlightAware ADS-B
03:44 39.8028 -75.1076 91° East 301 346 8,900 2,400 Climbing FlightAware ADS-B
03:44 39.8022 -75.0795 92° East 307 353 9,600 2,220 Climbing FlightAware ADS-B
03:45 39.8007 -75.0220 92° East 329 379 10,600 1,620 Climbing FlightAware ADS-B
03:45 39.7990 -74.9589 92° East 361 415 11,300 1,620 Climbing FlightAware ADS-B
03:46 39.7974 -74.8914 92° East 378 435 12,300 2,220 Climbing FlightAware ADS-B
03:46 39.7957 -74.8207 92° East 387 445 13,600 2,340 Climbing FlightAware ADS-B
03:47 39.7949 -74.7806 91° East 391 450 14,200 2,040 Climbing FlightAware ADS-B
03:47 39.7960 -74.7596 86° East 390 449 14,500 2,520 Climbing FlightAware ADS-B
03:47 39.7980 -74.7471 78° East 387 445 14,800 2,460 Climbing FlightAware ADS-B
03:47 39.8053 -74.7231 68° East 384 442 15,200 1,980 Climbing FlightAware ADS-B
03:47 39.8113 -74.7098 60° Northeast 383 441 15,400 1,680 Climbing FlightAware ADS-B
03:48 39.8360 -74.6692 52° Northeast 390 449 16,000 1,680 Climbing FlightAware ADS-B
03:48 39.8546 -74.6410 49° Northeast 396 456 16,500 1,800 Climbing FlightAware ADS-B
03:48 39.8924 -74.5873 47° Northeast 406 467 17,400 1,920 Climbing FlightAware ADS-B
03:49 39.9315 -74.5320 47° Northeast 408 470 18,500 2,220 Climbing FlightAware ADS-B
03:49 39.9722 -74.4748 47° Northeast 410 472 19,700 2,160 Climbing FlightAware ADS-B
03:50 40.0113 -74.4202 47° Northeast 415 478 20,700 1,800 Climbing FlightAware ADS-B
03:50 40.0524 -74.3624 47° Northeast 419 482 21,600 1,740 Climbing FlightAware ADS-B
03:51 40.0922 -74.3062 47° Northeast 423 487 22,500 1,380 Climbing FlightAware ADS-B
03:51 40.1325 -74.2491 47° Northeast 424 488 23,000 420 Climbing FlightAware ADS-B
03:52 40.1771 -74.1855 47° Northeast 420 483 23,000  Level FlightAware ADS-B
03:53 40.2123 -74.1357 47° Northeast 421 484 23,000  Level FlightAware ADS-B
03:53 40.2484 -74.0913 43° Northeast 413 475 23,000  Level FlightAware ADS-B
03:53 40.2698 -74.0703 37° Northeast 412 474 23,000  Level FlightAware ADS-B
03:54 40.3186 -74.0299 32° Northeast 411 473 23,000  Level FlightAware ADS-B
03:54 40.3676 -73.9917 31° Northeast 412 474 23,000  Level FlightAware ADS-B
03:55 40.4171 -73.9534 30° Northeast 411 473 23,000  Level FlightAware ADS-B
03:55 40.4668 -73.9152 30° Northeast 411 473 23,000  Level FlightAware ADS-B
03:56 40.5163 -73.8768 31° Northeast 410 472 23,000  Level FlightAware ADS-B
03:56 40.5656 -73.8381 31° Northeast 409 471 23,000  Level FlightAware ADS-B
03:57 40.6152 -73.7992 31° Northeast 408 470 23,000  Level FlightAware ADS-B
03:57 40.6647 -73.7602 31° Northeast 407 468 23,000  Level FlightAware ADS-B
03:58 40.7142 -73.7208 31° Northeast 406 467 23,000  Level FlightAware ADS-B
03:58 40.7631 -73.6820 31° Northeast 407 468 23,000  Level FlightAware ADS-B
03:59 40.8140 -73.6413 31° Northeast 406 467 23,000  Level FlightAware ADS-B
03:59 40.8636 -73.6018 31° Northeast 403 464 23,000 -300 Level FlightAware ADS-B
04:00 40.9117 -73.5635 31° Northeast 397 457 22,700 -1,140 Descending FlightAware ADS-B
04:00 40.9590 -73.5255 31° Northeast 397 457 21,900 -1,980 Descending FlightAware ADS-B
04:01 41.0070 -73.4867 31° Northeast 397 457 20,700 -2,400 Descending FlightAware ADS-B
04:01 41.0536 -73.4487 32° Northeast 388 447 19,500 -2,520 Descending FlightAware ADS-B
04:02 41.0995 -73.4115 31° Northeast 384 442 18,200 -2,400 Descending FlightAware ADS-B
04:03 41.1652 -73.3578 32° Northeast 375 432 16,600 -2,280 Descending FlightAware ADS-B
04:03 41.2199 -73.3135 31° Northeast 367 422 15,200 -2,280 Descending FlightAware ADS-B
04:04 41.2668 -73.2749 32° Northeast 361 415 14,000 -1,140 Descending FlightAware ADS-B
04:04 41.3040 -73.2460 30° Northeast 361 415 14,000 -1,260 Level FlightAware
04:05 41.3590 -73.2010 32° Northeast 342 394 12,500 -1,860 Descending FlightAware
04:06 41.4190 -73.1590 28° Northeast 338 389 11,400 -780 Descending FlightAware
04:06 41.4650 -73.1250 29° Northeast 338 389 11,400  Level FlightAware
04:07 41.5120 -73.0900 29° Northeast 338 389 11,400 -2,460 Level FlightAware
04:08 41.5464 -73.0614 29° Northeast 268 308 8,300 -3,660 Descending Boston Center
04:08 41.5922 -73.0286 28° Northeast 271 312 7,100 -1,800 Descending Boston Center
04:09 41.6175 -73.0067 33° Northeast 268 308 6,500 -1,740 Descending Boston Center
04:09 41.6531 -72.9819 27° Northeast 252 290 5,400 -1,740 Descending Boston Center
04:10 41.6739 -72.9653 31° Northeast 263 303 4,800 -1,620 Descending Boston Center
04:10 41.7117 -72.9378 29° Northeast 245 282 3,800 -1,440 Descending Boston Center
04:11 41.7367 -72.9186 30° Northeast 241 277 3,400 -600 Descending Boston Center
04:11 41.7681 -72.8936 31° Northeast 240 276 3,200 -420 Descending Boston Center
04:12 41.7911 -72.8772 28° Northeast 236 272 3,000 -240 Descending Boston Center
04:12 41.8161 -72.8494 40° Northeast 195 224 3,000  Level Boston Center
04:13 41.8267 -72.8383 38° Northeast 210 242 3,000 -420 Level Boston Center
04:13 41.8497 -72.8108 42° Northeast 156 180 2,600 -720 Descending Boston Center
04:14 41.8558 -72.7997 54° Northeast 174 200 2,300 -840 Descending Boston Center
04:14 41.8747 -72.7747 45° Northeast 138 159 1,800 -720 Descending Boston Center
04:15 41.8831 -72.7636 45° Northeast 144 166 1,600 -720 Descending Boston Center
04:15 41.8978 -72.7442 45° Northeast 120 138 1,100 -600 Descending Boston Center
04:16 41.9061 -72.7358 37° Northeast 119 137 1,000 -600 Descending Boston Center
04:16 41.9228 -72.7136 45° Northeast 119 137 500 -600 Descending Boston Center
04:17 41.9311 -72.6997 51° Northeast 119 137 400 -300 Descending Boston Center
04:20 41.9333 -72.6833 29° Northeast  Level FlightAware Approximate
04:27 41.9392 -72.6834 29° Northeast  Level Estimated
04:28 41.9333 -72.6833 29° Northeast  Level FlightAware Approximate
04:29 41.9392 -72.6834 29° Northeast  Level Estimated